createdAt,value
2019-03-20T00:00:59.872Z,80.98
2019-03-20T00:01:59.794Z,81.03
2019-03-20T00:02:59.722Z,81.17
2019-03-20T00:03:59.632Z,81.55
2019-03-20T00:04:59.560Z,81.60
2019-03-20T00:05:59.496Z,81.41
2019-03-20T00:06:59.423Z,82.27
2019-03-20T00:07:59.338Z,82.27
2019-03-20T00:08:59.265Z,82.08
2019-03-20T00:09:59.188Z,82.18
2019-03-20T00:10:59.115Z,82.46
2019-03-20T00:11:59.053Z,82.56
2019-03-20T00:12:58.974Z,82.46
2019-03-20T00:13:58.895Z,82.27
2019-03-20T00:14:58.819Z,81.84
2019-03-20T00:15:58.755Z,81.65
2019-03-20T00:16:58.684Z,81.93
2019-03-20T00:17:58.608Z,81.46
2019-03-20T00:18:58.537Z,81.36
2019-03-20T00:19:58.447Z,81.55
2019-03-20T00:20:58.379Z,81.65
2019-03-20T00:21:58.308Z,82.03
2019-03-20T00:22:58.235Z,82.41
2019-03-20T00:23:58.157Z,81.93
2019-03-20T00:24:58.076Z,82.84
2019-03-20T00:25:57.999Z,82.27
2019-03-20T00:26:57.930Z,82.75
2019-03-20T00:27:57.863Z,82.46
2019-03-20T00:28:57.788Z,82.75
2019-03-20T00:29:57.718Z,82.84
2019-03-20T00:30:57.645Z,82.27
2019-03-20T00:31:57.569Z,82.31
2019-03-20T00:32:57.484Z,82.31
2019-03-20T00:33:57.409Z,82.21
2019-03-20T00:35:01.113Z,81.93
2019-03-20T00:35:57.269Z,82.12
2019-03-20T00:36:57.195Z,82.37
2019-03-20T00:37:57.113Z,82.75
2019-03-20T00:38:57.040Z,82.69
2019-03-20T00:39:56.983Z,82.21
2019-03-20T00:40:56.904Z,82.50
2019-03-20T00:41:56.828Z,82.12
2019-03-20T00:42:56.753Z,82.31
2019-03-20T00:43:56.667Z,82.84
2019-03-20T00:44:56.597Z,83.32
2019-03-20T00:45:56.524Z,83.32
2019-03-20T00:46:56.444Z,83.22
2019-03-20T00:47:56.379Z,82.84
2019-03-20T00:48:56.306Z,82.93
2019-03-20T00:49:58.063Z,83.80
2019-03-20T00:50:56.162Z,83.61
2019-03-20T00:51:56.071Z,83.51
2019-03-20T00:52:56.001Z,82.93
2019-03-20T00:53:55.936Z,83.13
2019-03-20T00:54:55.862Z,82.75
2019-03-20T00:55:55.778Z,82.79
2019-03-20T00:56:55.702Z,82.60
2019-03-20T00:57:55.642Z,82.31
2019-03-20T00:58:55.556Z,81.98
2019-03-20T00:59:55.494Z,82.31
2019-03-20T01:00:55.418Z,82.41
2019-03-20T01:01:55.344Z,81.84
2019-03-20T01:02:55.272Z,82.50
2019-03-20T01:03:55.189Z,81.79
2019-03-20T01:04:55.112Z,81.60
2019-03-20T01:05:55.038Z,81.79
2019-03-20T01:06:54.963Z,82.46
2019-03-20T01:07:54.899Z,82.56
2019-03-20T01:08:54.821Z,82.37
2019-03-20T01:09:54.737Z,82.46
2019-03-20T01:10:54.665Z,82.56
2019-03-20T01:11:54.602Z,82.56
2019-03-20T01:12:54.529Z,82.84
2019-03-20T01:13:54.458Z,83.03
2019-03-20T01:14:54.380Z,82.75
2019-03-20T01:15:54.296Z,83.32
2019-03-20T01:16:54.218Z,83.03
2019-03-20T01:17:54.152Z,82.84
2019-03-20T01:18:54.080Z,83.03
2019-03-20T01:19:53.997Z,83.70
2019-03-20T01:20:53.926Z,83.61
2019-03-20T01:21:53.847Z,83.80
2019-03-20T01:22:53.793Z,83.61
2019-03-20T01:23:53.711Z,83.61
2019-03-20T01:24:53.637Z,83.70
2019-03-20T01:25:53.553Z,83.41
2019-03-20T01:26:53.477Z,83.51
2019-03-20T01:27:53.409Z,84.08
2019-03-20T01:28:53.334Z,83.80
2019-03-20T01:29:53.258Z,84.08
2019-03-20T01:30:53.190Z,84.27
2019-03-20T01:31:53.099Z,83.61
2019-03-20T01:32:53.024Z,83.98
2019-03-20T01:33:54.871Z,84.17
2019-03-20T01:34:52.881Z,83.80
2019-03-20T01:35:52.812Z,84.17
2019-03-20T01:36:52.740Z,84.84
2019-03-20T01:37:52.663Z,84.27
2019-03-20T01:38:52.592Z,83.98
2019-03-20T01:39:52.502Z,84.08
2019-03-20T01:40:52.446Z,84.08
2019-03-20T01:41:52.364Z,83.80
2019-03-20T01:42:52.290Z,84.08
2019-03-20T01:43:52.208Z,84.27
2019-03-20T01:44:52.132Z,84.17
2019-03-20T01:45:52.058Z,84.27
2019-03-20T01:46:51.991Z,83.85
2019-03-20T01:47:51.920Z,84.70
2019-03-20T01:48:51.889Z,84.61
2019-03-20T01:49:51.760Z,84.61
2019-03-20T01:50:51.683Z,84.75
2019-03-20T01:51:51.619Z,84.46
2019-03-20T01:52:51.548Z,84.56
2019-03-20T01:53:51.474Z,84.75
2019-03-20T01:54:51.398Z,84.65
2019-03-20T01:55:51.311Z,84.75
2019-03-20T01:56:51.246Z,84.80
2019-03-20T01:57:51.171Z,84.65
2019-03-20T01:58:51.102Z,84.61
2019-03-20T01:59:51.013Z,84.65
2019-03-20T02:00:50.936Z,84.61
2019-03-20T02:01:50.862Z,84.42
2019-03-20T02:02:50.795Z,84.75
2019-03-20T02:03:50.726Z,84.94
2019-03-20T02:04:50.654Z,84.65
2019-03-20T02:05:50.574Z,85.03
2019-03-20T02:06:50.500Z,85.13
2019-03-20T02:07:50.442Z,84.56
2019-03-20T02:08:50.344Z,84.27
2019-03-20T02:09:50.270Z,84.75
2019-03-20T02:10:50.193Z,84.75
2019-03-20T02:11:50.132Z,84.56
2019-03-20T02:12:50.058Z,84.56
2019-03-20T02:13:49.972Z,84.56
2019-03-20T02:14:49.892Z,84.46
2019-03-20T02:15:49.832Z,84.46
2019-03-20T02:16:49.756Z,84.36
2019-03-20T02:17:49.683Z,84.46
2019-03-20T02:18:49.606Z,84.75
2019-03-20T02:19:49.521Z,84.08
2019-03-20T02:20:49.447Z,83.80
2019-03-20T02:21:49.386Z,83.80
2019-03-20T02:22:49.307Z,83.89
2019-03-20T02:23:49.235Z,83.61
2019-03-20T02:24:49.146Z,83.70
2019-03-20T02:25:49.075Z,83.98
2019-03-20T02:26:49.003Z,83.32
2019-03-20T02:27:48.943Z,83.03
2019-03-20T02:28:48.860Z,83.22
2019-03-20T02:29:48.780Z,83.13
2019-03-20T02:30:48.703Z,82.46
2019-03-20T02:31:48.645Z,82.56
2019-03-20T02:32:48.575Z,83.13
2019-03-20T02:33:48.490Z,83.03
2019-03-20T02:34:48.428Z,82.93
2019-03-20T02:35:51.876Z,83.80
2019-03-20T02:36:48.267Z,83.61
2019-03-20T02:37:48.199Z,83.61
2019-03-20T02:38:48.113Z,83.70
2019-03-20T02:39:48.051Z,83.61
2019-03-20T02:40:47.992Z,84.08
2019-03-20T02:41:47.899Z,83.80
2019-03-20T02:42:47.828Z,84.08
2019-03-20T02:43:47.740Z,83.13
2019-03-20T02:44:47.667Z,83.32
2019-03-20T02:45:47.599Z,83.03
2019-03-20T02:46:47.526Z,83.32
2019-03-20T02:47:47.459Z,82.46
2019-03-20T02:48:47.367Z,83.32
2019-03-20T02:49:47.292Z,83.22
2019-03-20T02:50:47.234Z,84.17
2019-03-20T02:51:47.159Z,83.94
2019-03-20T02:52:47.084Z,84.33
2019-03-20T02:53:47.006Z,84.04
2019-03-20T02:54:46.933Z,84.13
2019-03-20T02:55:46.848Z,84.13
2019-03-20T02:56:46.779Z,84.08
2019-03-20T02:57:46.702Z,84.33
2019-03-20T02:58:46.626Z,83.70
2019-03-20T02:59:46.568Z,84.17
2019-03-20T03:00:46.489Z,83.94
2019-03-20T03:01:46.408Z,84.42
2019-03-20T03:02:46.330Z,84.04
2019-03-20T03:03:46.267Z,84.89
2019-03-20T03:04:46.190Z,84.52
2019-03-20T03:05:46.120Z,84.70
2019-03-20T03:06:46.033Z,85.08
2019-03-20T03:07:45.973Z,84.61
2019-03-20T03:08:45.889Z,84.61
2019-03-20T03:09:45.813Z,84.42
2019-03-20T03:10:45.749Z,84.80
2019-03-20T03:11:45.674Z,84.80
2019-03-20T03:12:45.602Z,84.80
2019-03-20T03:13:45.536Z,84.70
2019-03-20T03:14:45.442Z,85.85
2019-03-20T03:15:45.375Z,85.28
2019-03-20T03:16:45.297Z,85.47
2019-03-20T03:17:45.226Z,85.47
2019-03-20T03:18:45.141Z,85.08
2019-03-20T03:19:45.105Z,85.18
2019-03-20T03:20:44.992Z,84.61
2019-03-20T03:21:44.920Z,84.70
2019-03-20T03:22:44.997Z,84.80
2019-03-20T03:23:44.787Z,85.85
2019-03-20T03:24:44.693Z,85.47
2019-03-20T03:25:44.625Z,85.75
2019-03-20T03:26:44.551Z,85.66
2019-03-20T03:27:44.481Z,85.66
2019-03-20T03:28:44.409Z,85.28
2019-03-20T03:29:44.334Z,85.66
2019-03-20T03:30:44.246Z,85.66
2019-03-20T03:31:44.169Z,85.85
2019-03-20T03:32:44.110Z,85.08
2019-03-20T03:33:44.041Z,85.08
2019-03-20T03:34:43.951Z,85.56
2019-03-20T03:35:43.880Z,85.37
2019-03-20T03:36:43.796Z,84.61
2019-03-20T03:37:43.732Z,84.70
2019-03-20T03:38:43.710Z,84.70
2019-03-20T03:39:43.590Z,84.70
2019-03-20T03:40:43.514Z,85.08
2019-03-20T03:41:43.440Z,85.66
2019-03-20T03:42:43.354Z,85.66
2019-03-20T03:43:43.290Z,85.75
2019-03-20T03:44:43.200Z,85.85
2019-03-20T03:45:43.168Z,85.56
2019-03-20T03:46:43.066Z,85.85
2019-03-20T03:47:42.990Z,85.75
2019-03-20T03:48:42.914Z,86.09
2019-03-20T03:49:42.840Z,85.99
2019-03-20T03:50:42.772Z,85.99
2019-03-20T03:51:42.695Z,86.28
2019-03-20T03:52:42.643Z,85.47
2019-03-20T03:53:42.565Z,85.47
2019-03-20T03:54:42.456Z,85.61
2019-03-20T03:55:42.475Z,85.33
2019-03-20T03:56:42.303Z,85.47
2019-03-20T03:57:42.237Z,85.47
2019-03-20T03:58:42.167Z,86.04
2019-03-20T03:59:42.099Z,85.66
2019-03-20T04:00:42.017Z,85.47
2019-03-20T04:01:41.945Z,85.18
2019-03-20T04:02:41.861Z,85.52
2019-03-20T04:03:41.784Z,85.85
2019-03-20T04:04:41.719Z,85.75
2019-03-20T04:05:41.649Z,85.08
2019-03-20T04:06:41.568Z,85.37
2019-03-20T04:07:41.486Z,84.70
2019-03-20T04:08:41.413Z,84.89
2019-03-20T04:09:41.337Z,84.70
2019-03-20T04:10:41.272Z,84.61
2019-03-20T04:11:41.200Z,84.70
2019-03-20T04:12:41.123Z,84.89
2019-03-20T04:13:41.050Z,84.89
2019-03-20T04:14:40.958Z,84.99
2019-03-20T04:15:40.908Z,85.37
2019-03-20T04:16:40.830Z,85.28
2019-03-20T04:17:40.741Z,85.18
2019-03-20T04:18:40.683Z,85.37
2019-03-20T04:19:40.597Z,84.99
2019-03-20T04:20:40.514Z,84.80
2019-03-20T04:21:40.441Z,84.70
2019-03-20T04:22:40.379Z,84.80
2019-03-20T04:23:40.304Z,84.99
2019-03-20T04:24:40.223Z,84.89
2019-03-20T04:25:40.184Z,84.89
2019-03-20T04:26:40.070Z,85.47
2019-03-20T04:27:40.000Z,85.28
2019-03-20T04:28:39.925Z,85.37
2019-03-20T04:29:39.853Z,85.08
2019-03-20T04:30:39.769Z,85.37
2019-03-20T04:31:39.700Z,84.99
2019-03-20T04:32:39.612Z,85.56
2019-03-20T04:33:39.586Z,85.61
2019-03-20T04:34:39.479Z,85.61
2019-03-20T04:35:39.401Z,85.42
2019-03-20T04:36:47.663Z,85.52
2019-03-20T04:37:39.245Z,85.42
2019-03-20T04:38:39.176Z,85.80
2019-03-20T04:39:39.100Z,85.61
2019-03-20T04:40:39.025Z,85.61
2019-03-20T04:41:38.952Z,85.90
2019-03-20T04:42:38.868Z,85.52
2019-03-20T04:43:38.793Z,85.37
2019-03-20T04:44:38.718Z,85.47
2019-03-20T04:45:38.648Z,84.99
2019-03-20T04:46:38.578Z,84.89
2019-03-20T04:47:38.503Z,85.47
2019-03-20T04:48:38.430Z,84.80
2019-03-20T04:49:38.351Z,84.70
2019-03-20T04:50:38.274Z,84.13
2019-03-20T04:51:38.192Z,84.13
2019-03-20T04:52:38.127Z,84.61
2019-03-20T04:53:38.056Z,84.80
2019-03-20T04:54:37.972Z,84.80
2019-03-20T04:55:37.896Z,85.24
2019-03-20T04:56:37.818Z,85.04
2019-03-20T04:57:37.745Z,85.04
2019-03-20T04:58:37.683Z,85.24
2019-03-20T04:59:37.602Z,85.33
2019-03-20T05:00:37.528Z,85.24
2019-03-20T05:01:37.461Z,85.42
2019-03-20T05:02:37.372Z,84.99
2019-03-20T05:03:37.300Z,84.89
2019-03-20T05:04:37.226Z,85.18
2019-03-20T05:05:37.144Z,85.28
2019-03-20T05:06:37.090Z,84.80
2019-03-20T05:07:37.015Z,84.61
2019-03-20T05:08:36.920Z,85.08
2019-03-20T05:09:36.849Z,84.89
2019-03-20T05:10:36.783Z,84.70
2019-03-20T05:11:36.709Z,84.70
2019-03-20T05:12:36.634Z,84.61
2019-03-20T05:13:36.559Z,85.18
2019-03-20T05:14:36.474Z,84.52
2019-03-20T05:15:36.403Z,84.61
2019-03-20T05:16:36.322Z,84.80
2019-03-20T05:17:36.254Z,84.23
2019-03-20T05:18:36.181Z,84.33
2019-03-20T05:19:36.109Z,83.75
2019-03-20T05:20:36.039Z,83.85
2019-03-20T05:21:35.956Z,83.65
2019-03-20T05:22:35.874Z,83.85
2019-03-20T05:23:35.800Z,83.75
2019-03-20T05:24:35.734Z,84.04
2019-03-20T05:25:35.663Z,83.94
2019-03-20T05:26:35.589Z,84.13
2019-03-20T05:27:35.510Z,84.13
2019-03-20T05:28:35.445Z,84.33
2019-03-20T05:29:35.353Z,84.04
2019-03-20T05:30:35.290Z,84.23
2019-03-20T05:31:35.211Z,84.33
2019-03-20T05:32:35.130Z,84.33
2019-03-20T05:33:35.057Z,84.52
2019-03-20T05:34:34.994Z,84.80
2019-03-20T05:35:34.914Z,84.61
2019-03-20T05:36:34.846Z,84.80
2019-03-20T05:37:34.770Z,85.47
2019-03-20T05:38:34.684Z,84.76
2019-03-20T05:39:34.607Z,85.14
2019-03-20T05:40:34.545Z,85.80
2019-03-20T05:41:34.466Z,85.52
2019-03-20T05:42:34.381Z,85.61
2019-03-20T05:43:34.312Z,85.04
2019-03-20T05:44:34.232Z,85.24
2019-03-20T05:45:34.159Z,84.89
2019-03-20T05:46:34.093Z,85.08
2019-03-20T05:47:34.018Z,85.37
2019-03-20T05:48:33.937Z,84.80
2019-03-20T05:49:33.870Z,84.99
2019-03-20T05:50:33.784Z,85.24
2019-03-20T05:51:33.718Z,84.80
2019-03-20T05:52:33.657Z,84.85
2019-03-20T05:53:33.557Z,85.71
2019-03-20T05:54:33.494Z,85.80
2019-03-20T05:55:33.419Z,85.80
2019-03-20T05:56:33.336Z,85.90
2019-03-20T05:57:33.264Z,85.52
2019-03-20T05:58:33.211Z,85.71
2019-03-20T05:59:33.119Z,85.52
2019-03-20T06:00:33.044Z,85.24
2019-03-20T06:01:32.970Z,84.99
2019-03-20T06:02:32.878Z,84.99
2019-03-20T06:03:32.812Z,85.28
2019-03-20T06:04:32.784Z,84.89
2019-03-20T06:05:32.669Z,84.99
2019-03-20T06:06:32.587Z,84.80
2019-03-20T06:07:32.508Z,84.70
2019-03-20T06:08:32.428Z,84.70
2019-03-20T06:09:32.364Z,84.13
2019-03-20T06:10:32.293Z,84.23
2019-03-20T06:11:32.221Z,84.33
2019-03-20T06:12:32.133Z,84.33
2019-03-20T06:13:32.060Z,84.04
2019-03-20T06:14:31.999Z,83.94
2019-03-20T06:15:31.924Z,84.33
2019-03-20T06:16:31.849Z,84.42
2019-03-20T06:17:31.768Z,84.04
2019-03-20T06:18:31.685Z,84.23
2019-03-20T06:19:31.610Z,83.85
2019-03-20T06:20:33.744Z,84.13
2019-03-20T06:21:31.461Z,83.75
2019-03-20T06:22:31.393Z,84.23
2019-03-20T06:23:31.324Z,84.42
2019-03-20T06:24:31.246Z,84.42
2019-03-20T06:25:31.175Z,84.99
2019-03-20T06:26:31.088Z,84.99
2019-03-20T06:27:31.011Z,84.80
2019-03-20T06:28:30.948Z,84.33
2019-03-20T06:29:30.878Z,84.33
2019-03-20T06:30:30.784Z,84.33
2019-03-20T06:31:30.716Z,84.04
2019-03-20T06:32:30.642Z,83.98
2019-03-20T06:33:30.566Z,83.61
2019-03-20T06:34:30.501Z,83.22
2019-03-20T06:35:30.425Z,83.51
2019-03-20T06:36:30.344Z,83.61
2019-03-20T06:37:32.722Z,83.51
2019-03-20T06:38:30.230Z,83.41
2019-03-20T06:39:30.129Z,82.84
2019-03-20T06:40:30.058Z,82.75
2019-03-20T06:41:29.983Z,83.03
2019-03-20T06:42:29.892Z,82.84
2019-03-20T06:43:29.818Z,82.65
2019-03-20T06:44:29.762Z,83.03
2019-03-20T06:45:29.693Z,82.75
2019-03-20T06:46:29.600Z,82.75
2019-03-20T06:47:29.528Z,82.93
2019-03-20T06:48:29.478Z,83.32
2019-03-20T06:49:29.375Z,82.84
2019-03-20T06:50:29.316Z,82.65
2019-03-20T06:51:29.243Z,82.75
2019-03-20T06:52:29.174Z,82.75
2019-03-20T06:53:29.098Z,82.56
2019-03-20T06:54:29.004Z,82.75
2019-03-20T06:55:28.930Z,82.27
2019-03-20T06:56:28.860Z,82.46
2019-03-20T06:57:28.786Z,82.65
2019-03-20T06:58:28.722Z,82.46
2019-03-20T06:59:28.650Z,82.27
2019-03-20T07:00:28.588Z,83.03
2019-03-20T07:01:28.493Z,83.03
2019-03-20T07:02:28.436Z,83.80
2019-03-20T07:03:28.356Z,83.56
2019-03-20T07:04:28.286Z,83.75
2019-03-20T07:05:28.234Z,84.13
2019-03-20T07:06:28.154Z,83.98
2019-03-20T07:07:28.052Z,83.80
2019-03-20T07:08:27.974Z,83.70
2019-03-20T07:09:27.906Z,83.61
2019-03-20T07:10:27.845Z,83.41
2019-03-20T07:11:27.770Z,83.51
2019-03-20T07:12:27.694Z,83.41
2019-03-20T07:13:27.622Z,83.51
2019-03-20T07:14:27.536Z,82.65
2019-03-20T07:15:27.466Z,83.13
2019-03-20T07:16:27.412Z,83.32
2019-03-20T07:17:27.329Z,83.51
2019-03-20T07:18:27.245Z,83.41
2019-03-20T07:19:27.173Z,82.93
2019-03-20T07:20:27.100Z,82.93
2019-03-20T07:21:27.031Z,82.65
2019-03-20T07:22:27.011Z,82.65
2019-03-20T07:23:26.949Z,82.84
2019-03-20T07:24:26.821Z,83.03
2019-03-20T07:25:26.743Z,83.22
2019-03-20T07:26:28.612Z,82.84
2019-03-20T07:27:26.588Z,82.46
2019-03-20T07:28:26.516Z,82.65
2019-03-20T07:29:26.440Z,82.75
2019-03-20T07:30:26.387Z,82.46
2019-03-20T07:31:26.308Z,81.84
2019-03-20T07:32:26.228Z,81.74
2019-03-20T07:33:26.154Z,81.07
2019-03-20T07:34:26.098Z,81.46
2019-03-20T07:35:26.025Z,80.79
2019-03-20T07:36:25.950Z,81.36
2019-03-20T07:37:25.870Z,81.26
2019-03-20T07:38:25.791Z,81.46
2019-03-20T07:39:25.719Z,81.36
2019-03-20T07:40:25.658Z,80.88
2019-03-20T07:41:25.584Z,81.55
2019-03-20T07:42:25.501Z,81.26
2019-03-20T07:43:27.010Z,80.69
2019-03-20T07:44:25.354Z,81.17
2019-03-20T07:45:25.283Z,81.17
2019-03-20T07:46:25.223Z,81.46
2019-03-20T07:47:25.154Z,80.79
2019-03-20T07:48:25.078Z,80.79
2019-03-20T07:49:24.990Z,80.98
2019-03-20T07:50:24.933Z,80.69
2019-03-20T07:51:24.861Z,81.07
2019-03-20T07:52:24.791Z,80.88
2019-03-20T07:53:24.717Z,80.79
2019-03-20T07:54:24.631Z,81.17
2019-03-20T07:55:24.559Z,80.41
2019-03-20T07:56:24.530Z,80.54
2019-03-20T07:57:24.417Z,80.26
2019-03-20T07:58:24.354Z,79.88
2019-03-20T07:59:24.286Z,79.97
2019-03-20T08:00:24.205Z,79.88
2019-03-20T08:01:24.144Z,79.40
2019-03-20T08:02:24.058Z,79.68
2019-03-20T08:03:23.978Z,79.49
2019-03-20T08:04:23.925Z,78.92
2019-03-20T08:05:29.266Z,78.54
2019-03-20T08:06:23.775Z,78.83
2019-03-20T08:07:23.692Z,78.73
2019-03-20T08:08:23.624Z,79.25
2019-03-20T08:09:25.640Z,79.02
2019-03-20T08:10:23.496Z,78.73
2019-03-20T08:11:23.421Z,78.92
2019-03-20T08:12:23.349Z,78.54
2019-03-20T08:13:23.293Z,78.83
2019-03-20T08:14:23.192Z,78.39
2019-03-20T08:15:23.118Z,78.44
2019-03-20T08:16:23.046Z,78.86
2019-03-20T08:17:22.978Z,78.20
2019-03-20T08:18:22.919Z,78.58
2019-03-20T08:19:22.847Z,77.62
2019-03-20T08:20:22.773Z,77.69
2019-03-20T08:21:22.746Z,77.53
2019-03-20T08:22:22.631Z,77.82
2019-03-20T08:23:22.567Z,78.01
2019-03-20T08:24:22.490Z,77.34
2019-03-20T08:25:22.419Z,76.96
2019-03-20T08:26:22.336Z,77.15
2019-03-20T08:27:22.276Z,77.53
2019-03-20T08:28:22.188Z,77.72
2019-03-20T08:29:22.119Z,77.53
2019-03-20T08:30:22.095Z,77.34
2019-03-20T08:31:21.994Z,76.77
2019-03-20T08:32:21.916Z,77.06
2019-03-20T08:33:21.863Z,77.06
2019-03-20T08:34:21.763Z,77.25
2019-03-20T08:35:21.692Z,76.77
2019-03-20T08:36:21.638Z,76.86
2019-03-20T08:37:21.566Z,76.67
2019-03-20T08:38:21.478Z,75.91
2019-03-20T08:39:21.444Z,76.10
2019-03-20T08:40:22.120Z,76.29
2019-03-20T08:41:21.280Z,75.72
2019-03-20T08:42:21.242Z,75.57
2019-03-20T08:43:21.139Z,75.62
2019-03-20T08:45:55.140Z,75.57
2019-03-20T08:48:10.555Z,75.28
2019-03-20T08:49:10.446Z,75.09
2019-03-20T08:51:05.710Z,74.04
2019-03-20T08:52:05.616Z,74.13
2019-03-20T08:54:00.891Z,73.94
2019-03-20T08:55:00.776Z,74.32
2019-03-20T08:56:56.039Z,73.94
2019-03-20T08:57:55.950Z,73.94
2019-03-20T08:59:51.213Z,73.47
2019-03-20T09:00:51.107Z,73.28
2019-03-20T09:02:46.397Z,72.83
2019-03-20T09:03:46.298Z,72.83
2019-03-20T09:05:41.587Z,72.07
2019-03-20T09:06:41.486Z,72.36
2019-03-20T09:08:36.785Z,72.07
2019-03-20T09:09:36.674Z,72.30
2019-03-20T09:11:31.953Z,72.07
2019-03-20T09:12:31.853Z,71.15
2019-03-20T09:14:27.123Z,71.12
2019-03-20T09:15:27.029Z,71.02
2019-03-20T09:17:22.297Z,71.50
2019-03-20T09:18:22.211Z,71.02
2019-03-20T09:20:17.495Z,71.92
2019-03-20T09:21:17.399Z,71.31
2019-03-20T09:23:12.665Z,70.48
2019-03-20T09:24:12.569Z,70.77
2019-03-20T09:26:07.838Z,70.96
2019-03-20T09:27:07.746Z,70.67
2019-03-20T09:29:03.850Z,70.48
2019-03-20T09:30:03.756Z,70.42
2019-03-20T09:31:59.029Z,69.72
2019-03-20T09:32:58.936Z,69.66
2019-03-20T09:34:54.247Z,69.24
2019-03-20T09:35:54.157Z,68.96
2019-03-20T09:37:52.056Z,69.53
2019-03-20T09:38:49.398Z,69.34
2019-03-20T09:40:44.658Z,69.43
2019-03-20T09:41:44.558Z,69.72
2019-03-20T09:43:39.844Z,69.24
2019-03-20T09:44:39.751Z,69.47
2019-03-20T09:46:35.018Z,69.27
2019-03-20T09:47:34.923Z,68.80
2019-03-20T09:49:31.714Z,68.61
2019-03-20T09:50:31.617Z,67.75
2019-03-20T09:52:26.881Z,67.08
2019-03-20T09:53:26.796Z,67.08
2019-03-20T09:55:22.059Z,66.99
2019-03-20T09:56:21.964Z,66.50
2019-03-20T09:58:17.240Z,66.22
2019-03-20T09:59:17.147Z,65.64
2019-03-20T10:01:12.467Z,66.03
2019-03-20T10:02:12.328Z,65.84
2019-03-20T10:04:07.597Z,65.68
2019-03-20T10:05:07.509Z,66.06
2019-03-20T10:07:02.798Z,65.74
2019-03-20T10:08:02.693Z,65.77
2019-03-20T10:09:57.968Z,65.26
2019-03-20T10:10:57.871Z,65.17
2019-03-20T10:12:53.154Z,64.88
2019-03-20T10:13:53.053Z,65.07
2019-03-20T10:15:48.319Z,65.74
2019-03-20T10:16:48.236Z,65.97
2019-03-20T10:18:43.519Z,65.30
2019-03-20T10:19:43.427Z,65.48
2019-03-20T10:21:38.692Z,64.82
2019-03-20T10:22:39.077Z,64.82
2019-03-20T10:24:33.898Z,64.34
2019-03-20T10:25:43.871Z,64.25
2019-03-20T10:27:29.078Z,64.15
2019-03-20T10:28:28.987Z,64.05
2019-03-20T10:30:24.254Z,63.67
2019-03-20T10:31:24.172Z,64.05
2019-03-20T10:33:19.448Z,64.05
2019-03-20T10:34:19.352Z,64.05
2019-03-20T10:36:14.620Z,62.81
2019-03-20T10:37:14.545Z,62.71
2019-03-20T10:39:09.842Z,62.46
2019-03-20T10:40:09.732Z,63.42
2019-03-20T10:42:04.989Z,63.70
2019-03-20T10:43:04.895Z,63.60
2019-03-20T10:45:01.001Z,63.70
2019-03-20T10:46:00.914Z,63.60
2019-03-20T10:47:56.197Z,63.39
2019-03-20T10:48:56.404Z,63.19
2019-03-20T10:50:51.363Z,63.29
2019-03-20T10:51:51.286Z,63.03
2019-03-20T10:53:46.550Z,61.88
2019-03-20T10:54:46.454Z,62.17
2019-03-20T10:56:41.747Z,60.83
2019-03-20T10:57:41.652Z,61.02
2019-03-20T10:59:36.925Z,61.88
2019-03-20T11:00:36.840Z,61.98
2019-03-20T11:02:32.119Z,61.41
2019-03-20T11:03:32.080Z,61.41
2019-03-20T11:05:27.293Z,61.02
2019-03-20T11:06:27.208Z,60.64
2019-03-20T11:08:22.495Z,60.35
2019-03-20T11:09:22.391Z,60.74
2019-03-20T11:11:26.657Z,60.99
2019-03-20T11:12:17.573Z,60.80
2019-03-20T11:14:12.857Z,61.47
2019-03-20T11:15:12.764Z,61.51
2019-03-20T11:17:08.031Z,61.31
2019-03-20T11:18:07.947Z,61.02
2019-03-20T11:20:03.216Z,59.88
2019-03-20T11:21:03.126Z,59.49
2019-03-20T11:22:58.410Z,59.78
2019-03-20T11:23:58.305Z,59.30
2019-03-20T11:25:53.579Z,58.63
2019-03-20T11:26:53.486Z,58.34
2019-03-20T11:28:48.747Z,57.97
2019-03-20T11:29:48.663Z,58.28
2019-03-20T11:31:43.964Z,58.28
2019-03-20T11:32:43.869Z,58.09
2019-03-20T11:34:39.146Z,57.80
2019-03-20T11:35:39.068Z,57.13
2019-03-20T11:37:34.360Z,56.94
2019-03-20T11:38:34.262Z,57.26
2019-03-20T11:40:29.536Z,56.94
2019-03-20T11:41:29.441Z,56.65
2019-03-20T11:43:24.722Z,56.65
2019-03-20T11:44:24.619Z,56.65
2019-03-20T11:46:19.895Z,55.86
2019-03-20T11:47:19.817Z,55.96
2019-03-20T11:49:15.090Z,55.96
2019-03-20T11:50:14.993Z,55.67
2019-03-20T11:52:10.312Z,55.67
2019-03-20T11:53:10.191Z,55.47
2019-03-20T11:55:05.470Z,56.43
2019-03-20T11:56:05.373Z,55.88
2019-03-20T11:58:00.656Z,56.62
2019-03-20T11:59:00.583Z,56.08
2019-03-20T12:00:55.831Z,56.08
2019-03-20T12:01:55.738Z,55.60
2019-03-20T12:03:50.997Z,54.83
2019-03-20T12:04:50.918Z,54.55
2019-03-20T12:06:46.198Z,54.93
2019-03-20T12:07:46.104Z,54.93
2019-03-20T12:09:41.519Z,55.22
2019-03-20T12:10:41.275Z,55.41
2019-03-20T12:12:36.543Z,53.88
2019-03-20T12:13:36.468Z,53.28
2019-03-20T12:15:32.573Z,52.73
2019-03-20T12:16:32.471Z,53.02
2019-03-20T12:18:27.735Z,53.40
2019-03-20T12:19:27.645Z,53.59
2019-03-20T12:21:22.942Z,51.97
2019-03-20T12:22:22.848Z,52.15
2019-03-20T12:24:18.122Z,52.15
2019-03-20T12:25:18.047Z,52.15
2019-03-20T12:27:15.329Z,52.06
2019-03-20T12:28:13.210Z,52.15
2019-03-20T12:30:08.515Z,51.77
2019-03-20T12:31:08.399Z,51.77
2019-03-20T12:33:03.671Z,51.77
2019-03-20T12:34:03.632Z,50.81
2019-03-20T12:35:58.882Z,50.52
2019-03-20T12:36:58.777Z,51.01
2019-03-20T12:38:54.054Z,51.58
2019-03-20T12:39:53.958Z,52.15
2019-03-20T12:41:50.066Z,52.09
2019-03-20T12:42:49.962Z,51.89
2019-03-20T12:44:45.250Z,51.79
2019-03-20T12:45:45.142Z,51.13
2019-03-20T12:47:40.431Z,51.01
2019-03-20T12:48:40.337Z,51.01
2019-03-20T12:50:35.615Z,51.77
2019-03-20T12:51:35.538Z,51.89
2019-03-20T12:53:30.802Z,51.89
2019-03-20T12:54:30.728Z,51.89
2019-03-20T12:56:26.008Z,51.89
2019-03-20T12:57:25.918Z,51.99
2019-03-20T12:59:21.181Z,51.13
2019-03-20T13:00:21.106Z,50.84
2019-03-20T13:02:16.399Z,51.13
2019-03-20T13:03:16.299Z,51.61
2019-03-20T13:05:11.559Z,52.09
2019-03-20T13:06:11.486Z,52.18
2019-03-20T13:08:06.789Z,51.70
2019-03-20T13:09:06.660Z,51.22
2019-03-20T13:11:01.952Z,52.09
2019-03-20T13:12:01.852Z,51.79
2019-03-20T13:13:57.130Z,51.70
2019-03-20T13:14:57.046Z,51.32
2019-03-20T13:16:52.343Z,50.74
2019-03-20T13:17:52.234Z,50.74
2019-03-20T13:19:47.521Z,50.26
2019-03-20T13:20:47.442Z,49.79
2019-03-20T13:22:42.711Z,49.88
2019-03-20T13:23:42.607Z,49.31
2019-03-20T13:25:37.885Z,48.64
2019-03-20T13:26:37.797Z,48.73
2019-03-20T13:28:33.083Z,48.44
2019-03-20T13:29:32.992Z,48.73
2019-03-20T13:31:28.263Z,48.93
2019-03-20T13:32:28.174Z,47.87
2019-03-20T13:34:23.477Z,47.78
2019-03-20T13:35:23.376Z,48.44
2019-03-20T13:37:19.453Z,47.87
2019-03-20T13:38:19.355Z,47.89
2019-03-20T13:40:14.930Z,47.51
2019-03-20T13:41:14.533Z,47.13
2019-03-20T13:43:10.721Z,47.20
2019-03-20T13:44:10.632Z,47.01
2019-03-20T13:46:05.897Z,47.01
2019-03-20T13:47:08.113Z,46.94
2019-03-20T13:49:01.070Z,46.94
2019-03-20T13:50:00.992Z,46.75
2019-03-20T13:51:56.262Z,46.26
2019-03-20T13:52:56.172Z,46.65
2019-03-20T13:54:51.437Z,46.55
2019-03-20T13:55:51.352Z,46.84
2019-03-20T13:57:46.624Z,45.98
2019-03-20T13:58:46.538Z,45.79
2019-03-20T14:00:41.795Z,45.98
2019-03-20T14:01:41.711Z,46.08
2019-03-20T14:03:37.003Z,46.46
2019-03-20T14:04:36.909Z,46.65
2019-03-20T14:06:33.092Z,46.55
2019-03-20T14:07:33.002Z,46.26
2019-03-20T14:09:28.287Z,46.65
2019-03-20T14:10:28.185Z,46.94
2019-03-20T14:12:23.460Z,46.26
2019-03-20T14:13:23.359Z,46.36
2019-03-20T14:15:18.650Z,46.48
2019-03-20T14:16:18.569Z,46.58
2019-03-20T14:18:13.835Z,46.67
2019-03-20T14:19:13.747Z,46.67
2019-03-20T14:21:09.009Z,45.21
2019-03-20T14:22:08.934Z,45.04
2019-03-20T14:24:04.190Z,44.95
2019-03-20T14:25:04.116Z,44.85
2019-03-20T14:26:59.398Z,44.56
2019-03-20T14:27:59.294Z,45.04
2019-03-20T14:29:54.569Z,44.95
2019-03-20T14:30:54.467Z,44.47
2019-03-20T14:32:49.739Z,44.54
2019-03-20T14:33:49.660Z,44.45
2019-03-20T14:35:44.918Z,44.95
2019-03-20T14:36:44.835Z,45.12
2019-03-20T14:38:40.112Z,45.33
2019-03-20T14:39:40.029Z,45.02
2019-03-20T14:41:36.125Z,45.04
2019-03-20T14:42:36.024Z,44.76
2019-03-20T14:44:31.299Z,44.18
2019-03-20T14:45:31.213Z,44.18
2019-03-20T14:47:27.974Z,44.83
2019-03-20T14:48:27.882Z,44.06